Time;durP1;ratioP1;P1;durP2;ratioP2;P2;SDS_P1;SDS_P2;PMS_P1;PMS_P2;Temp;Humidity;BMP_temperature;BMP_pressure;BME280_temperature;BME280_humidity;BME280_pressure;Samples;Min_cycle;Max_cycle;Signal;HPM_P1;HPM_P2
2023/02/17 00:00:55;;;;;;;3.85;2.28;;;;;;;;;;4987939;28;20026;-82
2023/02/17 00:03:21;;;;;;;2.67;1.85;;;;;;;;;;4987270;28;20122;-82
2023/02/17 00:05:47;;;;;;;2.95;2.13;;;;;;;;;;4984576;28;21234;-80
2023/02/17 00:08:13;;;;;;;5.22;2.38;;;;;;;;;;4989936;28;20023;-80
2023/02/17 00:10:39;;;;;;;3.60;1.70;;;;;;;;;;4987787;28;20038;-80
2023/02/17 00:13:05;;;;;;;4.80;2.42;;;;;;;;;;4987486;28;20039;-79
2023/02/17 00:15:31;;;;;;;3.63;2.15;;;;;;;;;;4974987;28;20038;-80
2023/02/17 00:17:57;;;;;;;2.80;1.80;;;;;;;;;;4989873;28;20026;-80
2023/02/17 00:20:23;;;;;;;3.15;2.22;;;;;;;;;;4988664;28;20082;-79
2023/02/17 00:22:49;;;;;;;3.53;2.13;;;;;;;;;;4986718;28;20015;-79
2023/02/17 00:25:15;;;;;;;3.72;2.20;;;;;;;;;;4987600;28;20018;-79
2023/02/17 00:27:41;;;;;;;2.67;1.83;;;;;;;;;;4988975;28;20195;-79
2023/02/17 00:30:08;;;;;;;3.03;2.03;;;;;;;;;;4987028;28;20034;-80
2023/02/17 00:32:34;;;;;;;2.63;1.95;;;;;;;;;;4988328;28;20034;-80
2023/02/17 00:35:00;;;;;;;3.55;2.05;;;;;;;;;;4988048;28;20043;-80
2023/02/17 00:37:26;;;;;;;3.08;1.80;;;;;;;;;;4987672;28;20022;-80
2023/02/17 00:39:52;;;;;;;4.72;2.53;;;;;;;;;;4986700;28;20057;-79
2023/02/17 00:42:17;;;;;;;2.67;1.85;;;;;;;;;;4983555;28;20030;-80
2023/02/17 00:44:43;;;;;;;3.30;1.83;;;;;;;;;;4989081;28;20035;-80
2023/02/17 00:47:09;;;;;;;4.03;2.40;;;;;;;;;;4986766;28;20165;-79
2023/02/17 00:49:35;;;;;;;2.92;1.80;;;;;;;;;;4987074;28;20073;-80
2023/02/17 00:52:01;;;;;;;3.05;1.83;;;;;;;;;;4988434;28;20049;-79
2023/02/17 00:54:28;;;;;;;2.47;1.77;;;;;;;;;;4984542;28;20015;-80
2023/02/17 00:56:54;;;;;;;4.45;2.00;;;;;;;;;;4988533;28;20101;-79
2023/02/17 00:59:20;;;;;;;3.25;2.13;;;;;;;;;;4986553;28;20026;-79
2023/02/17 01:01:46;;;;;;;2.78;2.00;;;;;;;;;;4987006;28;20042;-79
2023/02/17 01:04:12;;;;;;;3.10;1.90;;;;;;;;;;4986075;28;20409;-79
2023/02/17 01:06:39;;;;;;;3.08;1.95;;;;;;;;;;4988368;28;20057;-79
2023/02/17 01:09:07;;;;;;;3.65;1.92;;;;;;;;;;4986278;28;20065;-79
2023/02/17 01:11:33;;;;;;;4.55;2.30;;;;;;;;;;4984175;28;20117;-80
2023/02/17 01:14:00;;;;;;;2.55;1.80;;;;;;;;;;4986811;28;20138;-79
2023/02/17 01:16:28;;;;;;;2.83;1.85;;;;;;;;;;4988861;28;20121;-79
2023/02/17 01:18:54;;;;;;;3.22;2.00;;;;;;;;;;4993049;28;20128;-79
2023/02/17 01:21:24;;;;;;;2.47;1.65;;;;;;;;;;4984341;28;20027;-79
2023/02/17 01:23:51;;;;;;;4.73;2.57;;;;;;;;;;4985658;28;20109;-79
2023/02/17 01:26:18;;;;;;;2.88;1.77;;;;;;;;;;4990559;28;20030;-81
2023/02/17 01:28:45;;;;;;;2.25;1.50;;;;;;;;;;5003783;28;20392;-81
2023/02/17 01:31:11;;;;;;;2.40;2.10;;;;;;;;;;4991207;28;20030;-80
2023/02/17 01:33:37;;;;;;;3.00;2.22;;;;;;;;;;4992358;28;20065;-80
2023/02/17 01:36:04;;;;;;;3.90;2.00;;;;;;;;;;4984670;28;20112;-80
2023/02/17 01:38:30;;;;;;;2.60;1.80;;;;;;;;;;5000572;28;20448;-80
2023/02/17 01:40:56;;;;;;;3.20;1.80;;;;;;;;;;4997662;28;20030;-81
2023/02/17 01:43:22;;;;;;;4.20;2.17;;;;;;;;;;4991914;28;20132;-80
2023/02/17 01:45:52;;;;;;;3.45;1.85;;;;;;;;;;4986466;28;20030;-79
2023/02/17 01:48:24;;;;;;;2.92;1.70;;;;;;;;;;4998400;28;20121;-79
2023/02/17 01:50:50;;;;;;;;;;;;;;;;;;4993427;28;20034;-79
2023/02/17 01:53:19;;;;;;;2.88;1.90;;;;;;;;;;4987119;28;20343;-79
2023/02/17 01:55:46;;;;;;;4.97;1.90;;;;;;;;;;4985785;28;20038;-80
2023/02/17 01:58:13;;;;;;;3.25;1.88;;;;;;;;;;4986548;28;20164;-79
2023/02/17 02:00:40;;;;;;;3.15;2.00;;;;;;;;;;4993223;28;20121;-80
2023/02/17 02:03:08;;;;;;;3.67;2.10;;;;;;;;;;4986556;28;20485;-79
2023/02/17 02:05:34;;;;;;;5.07;2.35;;;;;;;;;;4993963;28;20532;-79
2023/02/17 02:08:00;;;;;;;3.30;2.08;;;;;;;;;;4992397;28;20481;-80
2023/02/17 02:10:26;;;;;;;3.72;2.28;;;;;;;;;;4991179;28;20030;-80
2023/02/17 02:12:52;;;;;;;3.58;2.05;;;;;;;;;;4984677;28;20022;-79
2023/02/17 02:15:20;;;;;;;2.25;1.80;;;;;;;;;;4987935;28;20030;-79
2023/02/17 02:17:57;;;;;;;3.28;2.03;;;;;;;;;;4983910;28;20385;-79
2023/02/17 02:20:42;;;;;;;3.65;2.22;;;;;;;;;;4986557;28;20027;-79
2023/02/17 02:23:15;;;;;;;2.85;1.90;;;;;;;;;;4984657;28;20711;-80
2023/02/17 02:26:06;;;;;;;2.40;1.83;;;;;;;;;;4986723;28;20443;-79
2023/02/17 02:28:51;;;;;;;4.95;1.90;;;;;;;;;;4984453;28;20441;-79
2023/02/17 02:31:39;;;;;;;2.58;1.75;;;;;;;;;;4986290;28;20044;-79
2023/02/17 02:34:14;;;;;;;4.60;1.98;;;;;;;;;;4984723;28;20026;-80
2023/02/17 02:36:48;;;;;;;3.78;2.28;;;;;;;;;;4986056;28;20089;-79
2023/02/17 02:39:18;;;;;;;4.43;2.05;;;;;;;;;;4985432;28;20026;-80
2023/02/17 02:41:55;;;;;;;2.95;1.80;;;;;;;;;;4979042;28;20057;-80
2023/02/17 02:44:21;;;;;;;3.97;1.75;;;;;;;;;;4983093;28;20084;-81
2023/02/17 02:47:00;;;;;;;2.53;1.98;;;;;;;;;;4984592;28;20109;-81
2023/02/17 02:49:26;;;;;;;2.40;1.85;;;;;;;;;;4983118;28;20031;-80
2023/02/17 02:52:11;;;;;;;3.45;2.00;;;;;;;;;;4985503;28;20054;-80
2023/02/17 02:54:51;;;;;;;3.08;2.08;;;;;;;;;;4985737;28;20107;-81
2023/02/17 02:57:30;;;;;;;5.03;1.88;;;;;;;;;;4986378;28;20018;-80
2023/02/17 03:00:10;;;;;;;3.40;2.20;;;;;;;;;;4982323;28;20442;-80
2023/02/17 03:02:51;;;;;;;2.83;1.90;;;;;;;;;;4984930;28;20111;-80
2023/02/17 03:05:38;;;;;;;3.28;1.77;;;;;;;;;;4981899;28;20030;-80
2023/02/17 03:08:07;;;;;;;3.35;1.80;;;;;;;;;;4982143;28;20030;-79
2023/02/17 03:10:33;;;;;;;4.32;2.00;;;;;;;;;;4983544;28;20041;-79
2023/02/17 03:13:31;;;;;;;3.95;2.20;;;;;;;;;;4986776;28;20113;-79
2023/02/17 03:15:57;;;;;;;2.17;1.77;;;;;;;;;;4983096;28;20034;-80
2023/02/17 03:18:23;;;;;;;3.70;2.42;;;;;;;;;;4986897;28;20022;-80
2023/02/17 03:20:52;;;;;;;3.33;2.28;;;;;;;;;;4984608;28;20037;-80
2023/02/17 03:23:21;;;;;;;2.75;1.85;;;;;;;;;;4986585;28;20065;-80
2023/02/17 03:25:47;;;;;;;3.53;2.30;;;;;;;;;;4984120;28;20456;-80
2023/02/17 03:28:14;;;;;;;2.17;1.65;;;;;;;;;;4987633;28;20033;-80
2023/02/17 03:30:40;;;;;;;2.92;1.90;;;;;;;;;;4988460;28;20117;-81
2023/02/17 03:33:06;;;;;;;3.60;2.50;;;;;;;;;;4990187;28;20061;-80
2023/02/17 03:35:32;;;;;;;3.53;2.22;;;;;;;;;;4987868;28;20045;-80
2023/02/17 03:37:58;;;;;;;2.90;1.73;;;;;;;;;;4988774;28;20030;-80
2023/02/17 03:40:24;;;;;;;2.92;1.85;;;;;;;;;;4983047;28;20037;-80
2023/02/17 03:42:50;;;;;;;2.78;2.00;;;;;;;;;;4989322;28;20654;-80
2023/02/17 03:45:16;;;;;;;3.38;2.05;;;;;;;;;;4988326;28;20388;-80
2023/02/17 03:47:42;;;;;;;3.70;1.83;;;;;;;;;;4986525;28;20434;-80
2023/02/17 03:50:08;;;;;;;3.60;2.15;;;;;;;;;;4987045;28;20089;-80
2023/02/17 03:52:34;;;;;;;2.72;1.80;;;;;;;;;;4987571;28;20026;-80
2023/02/17 03:55:00;;;;;;;4.18;2.25;;;;;;;;;;4993444;28;20034;-80
2023/02/17 03:57:26;;;;;;;3.78;2.33;;;;;;;;;;4990083;28;20077;-79
2023/02/17 04:00:02;;;;;;;2.72;2.10;;;;;;;;;;4988508;28;20023;-81
2023/02/17 04:02:28;;;;;;;5.03;1.92;;;;;;;;;;4988022;28;20492;-82
2023/02/17 04:04:54;;;;;;;3.92;2.47;;;;;;;;;;4986265;28;20073;-82
2023/02/17 04:07:20;;;;;;;4.80;1.75;;;;;;;;;;4989648;28;20026;-81
2023/02/17 04:09:46;;;;;;;2.22;1.67;;;;;;;;;;4984500;28;20041;-81
2023/02/17 04:12:12;;;;;;;2.83;1.83;;;;;;;;;;4985188;28;20030;-80
2023/02/17 04:14:38;;;;;;;2.53;1.85;;;;;;;;;;4989929;28;20065;-80
2023/02/17 04:17:04;;;;;;;2.58;2.03;;;;;;;;;;4987771;28;20077;-79
2023/02/17 04:19:30;;;;;;;3.20;1.77;;;;;;;;;;4987730;28;20422;-79
2023/02/17 04:21:56;;;;;;;3.05;2.03;;;;;;;;;;4987484;28;20460;-79
2023/02/17 04:24:22;;;;;;;2.55;1.95;;;;;;;;;;4987999;28;20030;-80
2023/02/17 04:26:48;;;;;;;2.95;1.70;;;;;;;;;;4984451;28;20045;-79
2023/02/17 04:29:14;;;;;;;2.67;1.95;;;;;;;;;;4988745;28;20034;-79
2023/02/17 04:31:39;;;;;;;3.03;2.08;;;;;;;;;;4987013;28;20053;-80
2023/02/17 04:34:05;;;;;;;3.38;2.00;;;;;;;;;;4986755;28;20037;-80
2023/02/17 04:36:31;;;;;;;2.95;2.08;;;;;;;;;;4986735;28;20394;-82
2023/02/17 04:38:57;;;;;;;5.10;2.22;;;;;;;;;;4985059;28;20030;-80
2023/02/17 04:41:23;;;;;;;3.03;1.90;;;;;;;;;;4986358;28;20077;-80
2023/02/17 04:43:49;;;;;;;2.55;1.83;;;;;;;;;;4986459;28;20045;-80
2023/02/17 04:46:15;;;;;;;2.30;1.60;;;;;;;;;;4985333;28;20034;-80
2023/02/17 04:48:41;;;;;;;2.00;1.60;;;;;;;;;;4986250;28;20118;-80
2023/02/17 04:51:07;;;;;;;2.50;1.90;;;;;;;;;;4988323;28;20022;-81
2023/02/17 04:53:33;;;;;;;4.03;1.85;;;;;;;;;;4986428;28;20054;-80
2023/02/17 04:55:59;;;;;;;2.22;1.42;;;;;;;;;;4988219;28;20469;-80
2023/02/17 04:58:25;;;;;;;4.53;1.88;;;;;;;;;;4980891;28;20403;-80
2023/02/17 05:00:51;;;;;;;2.63;1.88;;;;;;;;;;4988067;28;20046;-80
2023/02/17 05:03:17;;;;;;;4.18;2.70;;;;;;;;;;4986578;28;20036;-80
2023/02/17 05:05:43;;;;;;;2.30;1.48;;;;;;;;;;4984682;28;20109;-80
2023/02/17 05:08:09;;;;;;;2.20;1.67;;;;;;;;;;4988290;28;20120;-80
2023/02/17 05:10:35;;;;;;;3.08;1.75;;;;;;;;;;4986263;28;20407;-81
2023/02/17 05:13:01;;;;;;;3.35;1.88;;;;;;;;;;4984628;28;20094;-82
2023/02/17 05:15:27;;;;;;;2.45;1.50;;;;;;;;;;4985637;28;20077;-80
2023/02/17 05:17:53;;;;;;;2.38;1.85;;;;;;;;;;4988314;28;20026;-79
2023/02/17 05:20:19;;;;;;;2.58;1.95;;;;;;;;;;4987497;28;20069;-80
2023/02/17 05:22:45;;;;;;;3.20;1.83;;;;;;;;;;4987584;28;20030;-80
2023/02/17 05:25:11;;;;;;;2.42;1.70;;;;;;;;;;4985783;28;20030;-80
2023/02/17 05:27:37;;;;;;;3.38;2.00;;;;;;;;;;4986903;28;20034;-80
2023/02/17 05:30:04;;;;;;;2.55;1.85;;;;;;;;;;4986662;28;20100;-80
2023/02/17 05:32:30;;;;;;;2.20;1.67;;;;;;;;;;4987494;28;20038;-80
2023/02/17 05:34:55;;;;;;;3.17;1.92;;;;;;;;;;4985869;28;20038;-80
2023/02/17 05:37:21;;;;;;;2.30;1.90;;;;;;;;;;4985706;28;20025;-83
2023/02/17 05:39:47;;;;;;;2.78;1.77;;;;;;;;;;4988168;28;20165;-83
2023/02/17 05:42:13;;;;;;;2.72;1.90;;;;;;;;;;4986364;28;20053;-83
2023/02/17 05:44:39;;;;;;;2.45;1.60;;;;;;;;;;4986557;28;20026;-82
2023/02/17 05:47:05;;;;;;;2.40;1.70;;;;;;;;;;4988026;28;20022;-83
2023/02/17 05:49:31;;;;;;;3.30;1.77;;;;;;;;;;4987733;28;20038;-83
2023/02/17 05:51:57;;;;;;;3.15;1.73;;;;;;;;;;4985776;28;20057;-81
2023/02/17 05:54:23;;;;;;;2.28;1.60;;;;;;;;;;4984639;28;20038;-80
2023/02/17 05:56:49;;;;;;;1.88;1.38;;;;;;;;;;4985707;28;20035;-80
2023/02/17 05:59:15;;;;;;;3.15;1.85;;;;;;;;;;4987268;28;20030;-83
2023/02/17 06:01:41;;;;;;;3.97;1.65;;;;;;;;;;4984363;28;20077;-84
2023/02/17 06:04:07;;;;;;;2.17;1.58;;;;;;;;;;4983811;28;20096;-82
2023/02/17 06:06:33;;;;;;;2.22;1.50;;;;;;;;;;4987727;28;20073;-82
2023/02/17 06:08:59;;;;;;;2.50;1.60;;;;;;;;;;4986850;28;20543;-82
2023/02/17 06:11:25;;;;;;;2.65;1.63;;;;;;;;;;4985348;28;20405;-83
2023/02/17 06:13:51;;;;;;;3.13;1.98;;;;;;;;;;4986209;28;20023;-82
2023/02/17 06:16:17;;;;;;;3.10;1.90;;;;;;;;;;4983981;28;20035;-82
2023/02/17 06:18:43;;;;;;;3.30;2.03;;;;;;;;;;4985266;28;20029;-82
2023/02/17 06:21:09;;;;;;;2.65;1.75;;;;;;;;;;4983413;28;20047;-81
2023/02/17 06:23:35;;;;;;;2.33;1.33;;;;;;;;;;4987239;28;20038;-81
2023/02/17 06:26:01;;;;;;;2.38;1.73;;;;;;;;;;4987945;28;20107;-81
2023/02/17 06:28:27;;;;;;;2.40;1.70;;;;;;;;;;4986481;28;20389;-82
2023/02/17 06:30:53;;;;;;;2.33;1.67;;;;;;;;;;4983722;28;20034;-82
2023/02/17 06:33:18;;;;;;;3.80;2.42;;;;;;;;;;4985264;28;20030;-81
2023/02/17 06:35:49;;;;;;;3.05;1.48;;;;;;;;;;4987279;28;20058;-82
2023/02/17 06:38:15;;;;;;;2.83;1.73;;;;;;;;;;4986015;28;20026;-82
2023/02/17 06:40:41;;;;;;;2.50;1.55;;;;;;;;;;4982337;28;20084;-82
2023/02/17 06:43:07;;;;;;;2.95;1.60;;;;;;;;;;4983268;28;20458;-83
2023/02/17 06:45:33;;;;;;;2.67;2.00;;;;;;;;;;4987289;28;20030;-81
2023/02/17 06:47:58;;;;;;;2.83;1.80;;;;;;;;;;4985964;28;20026;-83
2023/02/17 06:50:24;;;;;;;2.00;1.50;;;;;;;;;;4983406;28;20030;-82
2023/02/17 06:52:50;;;;;;;4.53;1.80;;;;;;;;;;4985446;28;21479;-84
2023/02/17 06:55:16;;;;;;;3.53;1.70;;;;;;;;;;4986429;28;20042;-81
2023/02/17 06:57:42;;;;;;;3.38;1.70;;;;;;;;;;4984803;28;20495;-81
2023/02/17 07:00:08;;;;;;;2.42;1.88;;;;;;;;;;4988262;28;20027;-81
2023/02/17 07:02:37;;;;;;;2.88;1.73;;;;;;;;;;4986293;28;20525;-82
2023/02/17 07:05:03;;;;;;;2.53;1.80;;;;;;;;;;4990749;28;20050;-81
2023/02/17 07:07:29;;;;;;;4.80;1.90;;;;;;;;;;4988511;28;20118;-82
2023/02/17 07:09:55;;;;;;;2.70;1.48;;;;;;;;;;4988619;28;20477;-81
2023/02/17 07:12:21;;;;;;;3.78;1.25;;;;;;;;;;4989168;28;20088;-81
2023/02/17 07:14:47;;;;;;;2.33;1.65;;;;;;;;;;4990309;28;20030;-77
2023/02/17 07:17:13;;;;;;;3.10;1.83;;;;;;;;;;4983392;28;20034;-82
2023/02/17 07:19:39;;;;;;;2.72;1.50;;;;;;;;;;4988112;28;20027;-83
2023/02/17 07:22:05;;;;;;;1.95;1.50;;;;;;;;;;4984051;28;20191;-82
2023/02/17 07:24:32;;;;;;;2.03;1.52;;;;;;;;;;4988492;28;20061;-82
2023/02/17 07:26:59;;;;;;;1.92;1.65;;;;;;;;;;4984880;28;20026;-85
2023/02/17 07:29:25;;;;;;;1.90;1.23;;;;;;;;;;4987291;28;20041;-84
2023/02/17 07:31:51;;;;;;;1.63;1.50;;;;;;;;;;4987538;28;20392;-83
2023/02/17 07:34:17;;;;;;;2.67;1.70;;;;;;;;;;4985123;28;20137;-83
2023/02/17 07:36:43;;;;;;;1.92;1.33;;;;;;;;;;4983088;28;20105;-83
2023/02/17 07:39:09;;;;;;;2.17;1.77;;;;;;;;;;4986054;28;20034;-83
2023/02/17 07:41:35;;;;;;;3.28;1.70;;;;;;;;;;4988072;28;20022;-82
2023/02/17 07:44:01;;;;;;;2.13;1.83;;;;;;;;;;4988564;28;20441;-82
2023/02/17 07:46:27;;;;;;;1.92;1.40;;;;;;;;;;4985835;28;20048;-82
2023/02/17 07:48:53;;;;;;;2.05;1.65;;;;;;;;;;4986062;28;20521;-78
2023/02/17 07:51:20;;;;;;;1.98;1.30;;;;;;;;;;4986496;28;20056;-77
2023/02/17 07:53:47;;;;;;;4.18;1.70;;;;;;;;;;4985487;28;20037;-79
2023/02/17 07:56:14;;;;;;;2.45;1.70;;;;;;;;;;4990003;28;20596;-82
2023/02/17 07:58:41;;;;;;;3.35;1.80;;;;;;;;;;4988868;28;20473;-79
2023/02/17 08:01:11;;;;;;;2.85;1.42;;;;;;;;;;4989249;28;20038;-78
2023/02/17 08:03:37;;;;;;;2.45;1.77;;;;;;;;;;4986128;28;20035;-78
2023/02/17 08:06:03;;;;;;;2.65;1.58;;;;;;;;;;4983848;28;20530;-78
2023/02/17 08:14:01;;;;;;;3.47;1.88;;;;;;;;;;4986602;28;20452;-78
2023/02/17 08:16:27;;;;;;;2.55;1.70;;;;;;;;;;4988210;28;20482;-77
2023/02/17 08:18:54;;;;;;;3.75;1.70;;;;;;;;;;4987430;28;20060;-79
2023/02/17 08:21:21;;;;;;;4.63;1.98;;;;;;;;;;4986614;28;20046;-77
2023/02/17 08:23:47;;;;;;;1.27;1.13;;;;;;;;;;4993952;28;20026;-77
2023/02/17 08:26:13;;;;;;;2.28;1.42;;;;;;;;;;4993516;28;20105;-74
2023/02/17 08:28:39;;;;;;;3.40;1.75;;;;;;;;;;4988293;28;20050;-80
2023/02/17 08:31:05;;;;;;;2.35;1.63;;;;;;;;;;4996144;28;20044;-81
2023/02/17 08:33:31;;;;;;;2.72;1.73;;;;;;;;;;4998555;28;20030;-81
2023/02/17 08:35:57;;;;;;;2.38;1.70;;;;;;;;;;4994849;28;20575;-79
2023/02/17 08:38:25;;;;;;;1.95;1.33;;;;;;;;;;4984692;28;20033;-80
2023/02/17 08:40:51;;;;;;;2.22;1.42;;;;;;;;;;4988988;28;20108;-79
2023/02/17 08:43:17;;;;;;;1.83;1.50;;;;;;;;;;4979958;28;20022;-80
2023/02/17 08:45:44;;;;;;;2.05;1.48;;;;;;;;;;4998490;28;20038;-80
2023/02/17 08:48:10;;;;;;;2.10;1.45;;;;;;;;;;4992722;28;20030;-80
2023/02/17 08:50:36;;;;;;;3.25;1.95;;;;;;;;;;4993439;28;20064;-81
2023/02/17 08:53:01;;;;;;;2.05;1.40;;;;;;;;;;4994933;28;20030;-74
2023/02/17 08:55:28;;;;;;;4.80;1.23;;;;;;;;;;5000488;28;20034;-76
2023/02/17 08:57:53;;;;;;;2.30;1.75;;;;;;;;;;4985875;28;20034;-77
2023/02/17 09:00:19;;;;;;;2.33;1.55;;;;;;;;;;4986097;28;20045;-79
2023/02/17 09:02:46;;;;;;;2.75;1.55;;;;;;;;;;4999828;28;20048;-79
2023/02/17 09:05:12;;;;;;;2.13;1.40;;;;;;;;;;4991878;28;20054;-78
2023/02/17 09:07:39;;;;;;;2.00;1.27;;;;;;;;;;4983711;28;20030;-79
2023/02/17 09:10:06;;;;;;;1.92;1.42;;;;;;;;;;4985680;28;20125;-77
2023/02/17 09:12:33;;;;;;;2.13;1.48;;;;;;;;;;5001235;28;20046;-79
2023/02/17 09:14:59;;;;;;;1.92;1.40;;;;;;;;;;4975992;28;20057;-76
2023/02/17 09:17:25;;;;;;;1.77;1.50;;;;;;;;;;4986283;28;20072;-76
2023/02/17 09:19:51;;;;;;;1.70;1.42;;;;;;;;;;4991561;28;20033;-76
2023/02/17 09:22:19;;;;;;;2.50;1.35;;;;;;;;;;4985158;28;20023;-76
2023/02/17 09:24:45;;;;;;;2.25;1.33;;;;;;;;;;4992396;28;20030;-76
2023/02/17 09:27:11;;;;;;;3.17;1.70;;;;;;;;;;4994663;28;20014;-75
2023/02/17 09:29:37;;;;;;;1.88;1.40;;;;;;;;;;4996831;28;20295;-75
2023/02/17 09:32:07;;;;;;;2.13;1.70;;;;;;;;;;4992163;28;20029;-75
2023/02/17 09:34:35;;;;;;;3.38;1.52;;;;;;;;;;4994558;28;20120;-75
2023/02/17 09:37:01;;;;;;;1.58;1.30;;;;;;;;;;4984629;28;20461;-75
2023/02/17 09:39:27;;;;;;;2.25;1.30;;;;;;;;;;4994635;28;20589;-75
2023/02/17 09:41:54;;;;;;;2.40;1.23;;;;;;;;;;4986606;28;20029;-75
2023/02/17 09:44:22;;;;;;;3.38;1.50;;;;;;;;;;4987240;28;20042;-76
2023/02/17 09:46:53;;;;;;;1.50;1.20;;;;;;;;;;4988029;28;20058;-76
2023/02/17 09:49:20;;;;;;;2.10;1.67;;;;;;;;;;4985815;28;20042;-75
2023/02/17 09:51:54;;;;;;;2.28;1.55;;;;;;;;;;4986548;28;20038;-76
2023/02/17 09:54:35;;;;;;;1.80;1.45;;;;;;;;;;4985995;28;20022;-76
2023/02/17 09:57:02;;;;;;;1.42;1.23;;;;;;;;;;4989693;28;20488;-76
2023/02/17 09:59:47;;;;;;;2.45;1.25;;;;;;;;;;4989628;28;20429;-76
2023/02/17 10:02:19;;;;;;;1.25;1.15;;;;;;;;;;4980229;28;20039;-76
2023/02/17 10:04:47;;;;;;;1.38;1.20;;;;;;;;;;4985787;28;20054;-76
2023/02/17 10:07:13;;;;;;;1.95;1.60;;;;;;;;;;4985153;28;20481;-76
2023/02/17 10:09:47;;;;;;;2.83;1.50;;;;;;;;;;4987835;28;20040;-76
2023/02/17 10:12:15;;;;;;;2.45;1.30;;;;;;;;;;4987936;28;20022;-76
2023/02/17 10:14:44;;;;;;;3.25;1.67;;;;;;;;;;4986219;28;20409;-76
2023/02/17 10:17:10;;;;;;;2.08;1.42;;;;;;;;;;4987807;28;20158;-76
2023/02/17 10:19:40;;;;;;;2.10;1.38;;;;;;;;;;4985957;28;20034;-75
2023/02/17 10:22:11;;;;;;;1.87;1.30;;;;;;;;;;4985552;28;20027;-76
2023/02/17 10:24:45;;;;;;;1.23;1.08;;;;;;;;;;4978457;28;20034;-76
2023/02/17 10:27:28;;;;;;;2.50;1.58;;;;;;;;;;4974757;28;20116;-76
2023/02/17 10:29:57;;;;;;;1.95;1.38;;;;;;;;;;4986484;28;20576;-76
2023/02/17 10:32:24;;;;;;;4.15;1.73;;;;;;;;;;4988117;28;20022;-76
2023/02/17 10:35:03;;;;;;;3.10;1.60;;;;;;;;;;4974326;28;20034;-76
2023/02/17 10:37:36;;;;;;;1.30;1.02;;;;;;;;;;4987130;28;20478;-77
2023/02/17 10:40:09;;;;;;;1.77;1.38;;;;;;;;;;4985398;28;20433;-76
2023/02/17 10:42:37;;;;;;;3.15;1.38;;;;;;;;;;4985987;28;20084;-76
2023/02/17 10:45:05;;;;;;;1.70;1.30;;;;;;;;;;4985727;28;20507;-76
2023/02/17 10:47:32;;;;;;;1.95;1.23;;;;;;;;;;4987590;28;20027;-76
2023/02/17 10:50:00;;;;;;;1.98;1.45;;;;;;;;;;4987137;28;20061;-76
2023/02/17 10:52:37;;;;;;;2.33;1.30;;;;;;;;;;4981947;28;20036;-76
2023/02/17 10:55:06;;;;;;;2.10;1.20;;;;;;;;;;4981871;28;20125;-77
2023/02/17 10:57:34;;;;;;;4.68;1.65;;;;;;;;;;4988055;28;20042;-76
2023/02/17 11:00:00;;;;;;;6.10;1.60;;;;;;;;;;4989929;28;20608;-76
2023/02/17 11:02:36;;;;;;;4.80;1.80;;;;;;;;;;4987789;28;20046;-75
2023/02/17 11:05:02;;;;;;;1.35;1.25;;;;;;;;;;4985258;28;20094;-75
2023/02/17 11:07:36;;;;;;;2.90;1.35;;;;;;;;;;4982840;28;20101;-76
2023/02/17 11:10:04;;;;;;;1.70;1.00;;;;;;;;;;4984624;28;20088;-76
2023/02/17 11:12:38;;;;;;;1.52;1.08;;;;;;;;;;4985560;28;20403;-77
2023/02/17 11:15:14;;;;;;;7.63;1.35;;;;;;;;;;4989301;28;20078;-76
2023/02/17 11:17:40;;;;;;;1.15;1.05;;;;;;;;;;4982007;28;20019;-75
2023/02/17 11:23:15;;;;;;;1.60;1.15;;;;;;;;;;4951566;28;20114;-77
2023/02/17 11:25:43;;;;;;;1.95;1.52;;;;;;;;;;4984461;28;20045;-76
2023/02/17 11:28:13;;;;;;;1.40;1.25;;;;;;;;;;4986146;28;20026;-77
2023/02/17 11:30:41;;;;;;;2.03;1.42;;;;;;;;;;4985947;28;20037;-77
2023/02/17 11:33:13;;;;;;;1.90;1.50;;;;;;;;;;4986947;28;20034;-77
2023/02/17 11:35:43;;;;;;;2.33;1.35;;;;;;;;;;4980870;28;20026;-77
2023/02/17 11:38:14;;;;;;;1.50;1.30;;;;;;;;;;4982269;28;20093;-77
2023/02/17 11:40:40;;;;;;;4.13;1.33;;;;;;;;;;4986838;28;20497;-77
2023/02/17 11:43:06;;;;;;;2.17;1.40;;;;;;;;;;4986798;28;20037;-77
2023/02/17 11:45:55;;;;;;;2.55;1.42;;;;;;;;;;4985073;28;20030;-77
2023/02/17 11:48:30;;;;;;;2.20;1.25;;;;;;;;;;4978683;28;20042;-77
2023/02/17 11:51:01;;;;;;;1.42;1.20;;;;;;;;;;4988592;28;20031;-77
2023/02/17 11:53:49;;;;;;;2.20;1.15;;;;;;;;;;4990495;28;20038;-77
2023/02/17 11:56:21;;;;;;;2.88;1.52;;;;;;;;;;4989699;28;20038;-77
2023/02/17 11:58:53;;;;;;;2.10;1.20;;;;;;;;;;4989154;28;20033;-77
2023/02/17 12:01:41;;;;;;;2.60;1.40;;;;;;;;;;4990471;28;20102;-78
2023/02/17 12:04:20;;;;;;;2.05;1.10;;;;;;;;;;4990224;28;20069;-77
2023/02/17 12:06:51;;;;;;;2.58;1.48;;;;;;;;;;4988714;28;20054;-77
2023/02/17 12:09:23;;;;;;;2.75;1.20;;;;;;;;;;4989151;28;20034;-77
2023/02/17 12:11:58;;;;;;;1.98;1.20;;;;;;;;;;4989764;28;20035;-78
2023/02/17 12:14:38;;;;;;;1.65;1.30;;;;;;;;;;4990188;28;20058;-78
2023/02/17 12:17:15;;;;;;;1.30;1.20;;;;;;;;;;4988288;28;20394;-78
2023/02/17 12:19:48;;;;;;;2.65;1.77;;;;;;;;;;4989022;28;20080;-77
2023/02/17 12:22:18;;;;;;;3.10;1.17;;;;;;;;;;4990002;28;20038;-78
2023/02/17 12:24:47;;;;;;;2.00;1.17;;;;;;;;;;4989693;28;20061;-77
2023/02/17 12:27:23;;;;;;;2.63;1.10;;;;;;;;;;4987023;28;20085;-77
2023/02/17 12:30:01;;;;;;;2.10;1.30;;;;;;;;;;4987383;28;20042;-78
2023/02/17 12:32:44;;;;;;;1.38;0.93;;;;;;;;;;4976586;28;20034;-75
2023/02/17 12:35:16;;;;;;;3.53;1.30;;;;;;;;;;4993473;28;20165;-75
2023/02/17 12:37:49;;;;;;;1.10;0.88;;;;;;;;;;4987102;28;20022;-75
2023/02/17 12:40:33;;;;;;;2.10;1.30;;;;;;;;;;4986468;28;20110;-75
2023/02/17 12:43:01;;;;;;;2.80;1.35;;;;;;;;;;4987606;28;20026;-75
2023/02/17 12:45:35;;;;;;;1.50;1.40;;;;;;;;;;4980459;28;20131;-75
2023/02/17 12:48:23;;;;;;;1.27;1.02;;;;;;;;;;4991623;28;20105;-76
2023/02/17 12:51:03;;;;;;;1.20;1.08;;;;;;;;;;4981509;28;20064;-77
2023/02/17 12:53:47;;;;;;;2.03;1.35;;;;;;;;;;4994857;28;20019;-77
2023/02/17 12:56:33;;;;;;;1.08;0.98;;;;;;;;;;4988492;28;20467;-76
2023/02/17 12:59:11;;;;;;;1.73;1.27;;;;;;;;;;4986111;28;20247;-78
2023/02/17 13:01:39;;;;;;;1.35;1.20;;;;;;;;;;4986567;28;20030;-81
2023/02/17 13:04:06;;;;;;;3.70;1.23;;;;;;;;;;4984418;28;20030;-77
2023/02/17 13:06:36;;;;;;;1.52;1.15;;;;;;;;;;4987716;28;20038;-76
2023/02/17 13:09:06;;;;;;;2.72;1.17;;;;;;;;;;4986076;28;20109;-76
2023/02/17 13:11:33;;;;;;;1.70;1.17;;;;;;;;;;4986308;28;20364;-79
2023/02/17 13:14:21;;;;;;;2.17;1.20;;;;;;;;;;4993886;28;20028;-78
2023/02/17 13:16:48;;;;;;;2.97;1.10;;;;;;;;;;4987684;28;20039;-78
2023/02/17 13:19:14;;;;;;;1.63;1.08;;;;;;;;;;4986698;28;20026;-77
2023/02/17 13:22:01;;;;;;;3.90;1.45;;;;;;;;;;4987196;28;20022;-75
2023/02/17 13:24:46;;;;;;;6.28;1.08;;;;;;;;;;4991823;28;20039;-75
2023/02/17 13:27:28;;;;;;;3.17;1.35;;;;;;;;;;4976063;28;20038;-73
2023/02/17 13:30:01;;;;;;;8.93;2.17;;;;;;;;;;4989426;28;20022;-76
2023/02/17 13:32:28;;;;;;;9.10;1.88;;;;;;;;;;4986683;28;20034;-76
2023/02/17 13:35:07;;;;;;;2.92;1.55;;;;;;;;;;4986578;28;20042;-78
2023/02/17 13:37:32;;;;;;;6.63;1.98;;;;;;;;;;4988471;28;20081;-85
2023/02/17 13:40:09;;;;;;;4.00;1.75;;;;;;;;;;4979745;28;20405;-79
2023/02/17 13:42:36;;;;;;;3.92;1.90;;;;;;;;;;4986667;28;20476;-79
2023/02/17 13:45:21;;;;;;;5.63;1.30;;;;;;;;;;4988539;28;20027;-74
2023/02/17 13:47:48;;;;;;;1.20;1.10;;;;;;;;;;4985243;28;20026;-79
2023/02/17 13:50:34;;;;;;;2.90;1.88;;;;;;;;;;4990483;28;20504;-79
2023/02/17 13:53:01;;;;;;;3.15;1.50;;;;;;;;;;4987550;28;20685;-79
2023/02/17 13:55:27;;;;;;;2.83;1.17;;;;;;;;;;4985135;28;20398;-77
2023/02/17 13:57:54;;;;;;;5.25;1.80;;;;;;;;;;4987671;28;20449;-77
2023/02/17 14:00:22;;;;;;;5.07;1.20;;;;;;;;;;4997345;28;20045;-76
2023/02/17 14:02:49;;;;;;;6.05;1.50;;;;;;;;;;4988465;28;20501;-77
2023/02/17 14:05:20;;;;;;;10.93;1.88;;;;;;;;;;4992027;28;20436;-80
2023/02/17 14:07:46;;;;;;;3.73;2.00;;;;;;;;;;4976602;28;20031;-73
2023/02/17 14:10:17;;;;;;;5.07;1.33;;;;;;;;;;4987318;28;20022;-79
2023/02/17 14:12:44;;;;;;;11.65;1.55;;;;;;;;;;4985812;28;20434;-81
2023/02/17 14:15:14;;;;;;;5.07;1.77;;;;;;;;;;4983193;28;20125;-86
2023/02/17 14:17:41;;;;;;;11.25;2.60;;;;;;;;;;4985829;28;20154;-82
2023/02/17 14:20:07;;;;;;;10.45;2.38;;;;;;;;;;4985372;28;20030;-84
2023/02/17 14:22:34;;;;;;;18.05;3.13;;;;;;;;;;4988281;28;20485;-77
2023/02/17 14:25:05;;;;;;;9.93;3.15;;;;;;;;;;4986018;28;20157;-80
2023/02/17 14:27:40;;;;;;;25.50;3.58;;;;;;;;;;4994254;28;20505;-75
2023/02/17 14:30:06;;;;;;;12.13;2.65;;;;;;;;;;4985971;28;20065;-80
2023/02/17 14:32:34;;;;;;;35.67;4.28;;;;;;;;;;4986811;28;20040;-88
2023/02/17 14:35:08;;;;;;;21.33;3.90;;;;;;;;;;4985113;28;20030;-78
2023/02/17 14:37:35;;;;;;;24.67;3.38;;;;;;;;;;4982248;28;20128;-81
2023/02/17 14:40:02;;;;;;;39.28;6.95;;;;;;;;;;4983930;28;20114;-79
2023/02/17 14:42:28;;;;;;;37.40;10.20;;;;;;;;;;4986968;28;20034;-77
2023/02/17 14:44:54;;;;;;;40.67;9.65;;;;;;;;;;4983381;28;20026;-79
2023/02/17 14:47:20;;;;;;;37.95;7.45;;;;;;;;;;4966296;28;20027;-79
2023/02/17 14:49:46;;;;;;;36.53;8.60;;;;;;;;;;4988781;28;20022;-79
2023/02/17 14:52:23;;;;;;;32.22;7.60;;;;;;;;;;4979282;28;20105;-84
2023/02/17 14:54:49;;;;;;;67.13;9.60;;;;;;;;;;4984915;28;20075;-80
2023/02/17 14:57:15;;;;;;;38.00;9.38;;;;;;;;;;4983559;28;20033;-81
2023/02/17 14:59:42;;;;;;;29.48;7.75;;;;;;;;;;4995995;28;20018;-80
2023/02/17 15:02:18;;;;;;;22.67;8.18;;;;;;;;;;4987670;28;20018;-81